aviador You're here:

KBKW Decoded Metar

BECKLEY in WV, USA
Report Time2017-05-29 01:51:00
UTC Time2017-05-29 02:00:22
Flight Rules vfr VFR
Wind240° at 04 kt
W.Decomp.*RWY 28: 3.3 kt HW 2.2 kt LCW
RWY 19: 2.2 kt HW 3.3 kt RCW
W.Rank240° ranks 6
Current wind is below 240° avg. (6.8)
Visibility9999 m
Phenomena:N/A
Clouds:Broken 050 Hf
Expected CloudBase > 1,600 ft AGL from Temp-Dew spread
Ceiling5,000 ft
Temp18°C (ISA +8)
Dew Point14°C (78% RH)
AAT17.9°C
QNH1013 hPa
Density Alt3,661 ft
Elevation2,507 ft
Report Wrong Elevation
Raw Report
METAR KBKW 290151Z AUTO 24004KT 10SM BKN050 18/14 A2991 RMK AO2 SLP107
T01780144 TSNO=

Extra information for KBKW:More info

Metar Taf Metar & Taf Last 4 Metars F.Rules Stats Wind Profile Meteogram Temp Stats Airport Information Weather charts Add Link Nearby VenuesMetar ALERT Operation Metar Decoded Social comments

AIRNAV info for KBKW